sensor_id;sensor_type;location;lat;lon;timestamp;pressure;altitude;pressure_sealevel;temperature;humidity
68230;BME280;55048;52.220;5.160;2023-07-24T00:01:29;100286.44;;;20.05;83.94
68230;BME280;55048;52.220;5.160;2023-07-24T00:03:54;100321.63;;;20.31;83.33
68230;BME280;55048;52.220;5.160;2023-07-24T00:06:21;100310.50;;;20.24;82.69
68230;BME280;55048;52.220;5.160;2023-07-24T00:08:46;100307.47;;;20.17;82.70
68230;BME280;55048;52.220;5.160;2023-07-24T00:11:12;100316.53;;;20.21;82.28
68230;BME280;55048;52.220;5.160;2023-07-24T00:13:37;100320.81;;;20.22;82.30
68230;BME280;55048;52.220;5.160;2023-07-24T00:16:07;100312.88;;;20.17;82.07
68230;BME280;55048;52.220;5.160;2023-07-24T00:18:33;100314.44;;;20.18;81.78
68230;BME280;55048;52.220;5.160;2023-07-24T00:20:58;100304.28;;;20.15;81.71
68230;BME280;55048;52.220;5.160;2023-07-24T00:23:23;100298.41;;;20.12;81.04
68230;BME280;55048;52.220;5.160;2023-07-24T00:25:49;100291.22;;;20.08;81.50
68230;BME280;55048;52.220;5.160;2023-07-24T00:28:14;100317.66;;;20.20;81.50
68230;BME280;55048;52.220;5.160;2023-07-24T00:30:40;100302.53;;;20.19;81.52
68230;BME280;55048;52.220;5.160;2023-07-24T00:33:05;100288.09;;;20.15;81.61
68230;BME280;55048;52.220;5.160;2023-07-24T00:35:30;100298.06;;;20.14;81.80
68230;BME280;55048;52.220;5.160;2023-07-24T00:37:56;100278.53;;;20.08;81.63
68230;BME280;55048;52.220;5.160;2023-07-24T00:40:21;100283.13;;;20.08;81.85
68230;BME280;55048;52.220;5.160;2023-07-24T00:42:47;100287.91;;;20.11;81.74
68230;BME280;55048;52.220;5.160;2023-07-24T00:45:14;100278.34;;;20.05;81.96
68230;BME280;55048;52.220;5.160;2023-07-24T00:47:40;100271.19;;;20.00;82.31
68230;BME280;55048;52.220;5.160;2023-07-24T00:50:07;100263.41;;;19.99;82.58
68230;BME280;55048;52.220;5.160;2023-07-24T00:52:32;100249.38;;;19.79;82.82
68230;BME280;55048;52.220;5.160;2023-07-24T00:54:58;100241.47;;;19.83;82.81
68230;BME280;55048;52.220;5.160;2023-07-24T00:57:23;100237.44;;;19.72;83.28
68230;BME280;55048;52.220;5.160;2023-07-24T00:59:49;100261.47;;;19.91;83.02
68230;BME280;55048;52.220;5.160;2023-07-24T01:02:14;100256.41;;;19.89;82.93
68230;BME280;55048;52.220;5.160;2023-07-24T01:04:40;100245.59;;;19.80;83.05
68230;BME280;55048;52.220;5.160;2023-07-24T01:07:05;100271.97;;;19.92;82.89
68230;BME280;55048;52.220;5.160;2023-07-24T01:09:31;100264.47;;;19.80;83.54
68230;BME280;55048;52.220;5.160;2023-07-24T01:14:55;100246.66;;;19.71;83.51
68230;BME280;55048;52.220;5.160;2023-07-24T01:17:24;100254.66;;;19.84;83.62
68230;BME280;55048;52.220;5.160;2023-07-24T01:19:55;100259.88;;;19.81;83.82
68230;BME280;55048;52.220;5.160;2023-07-24T01:25:13;100267.91;;;19.72;84.87
68230;BME280;55048;52.220;5.160;2023-07-24T01:27:44;100270.00;;;19.75;85.08
68230;BME280;55048;52.220;5.160;2023-07-24T01:30:11;100273.03;;;19.74;85.14
68230;BME280;55048;52.220;5.160;2023-07-24T01:32:37;100270.16;;;19.70;85.47
68230;BME280;55048;52.220;5.160;2023-07-24T01:35:03;100260.47;;;19.69;85.57
68230;BME280;55048;52.220;5.160;2023-07-24T01:37:30;100268.59;;;19.78;85.57
68230;BME280;55048;52.220;5.160;2023-07-24T01:39:56;100246.31;;;19.64;85.75
68230;BME280;55048;52.220;5.160;2023-07-24T01:42:23;100252.00;;;19.62;86.06
68230;BME280;55048;52.220;5.160;2023-07-24T01:44:53;100259.03;;;19.72;85.81
68230;BME280;55048;52.220;5.160;2023-07-24T01:47:18;100249.34;;;19.71;85.66
68230;BME280;55048;52.220;5.160;2023-07-24T01:49:44;100234.91;;;19.67;85.75
68230;BME280;55048;52.220;5.160;2023-07-24T01:52:09;100248.41;;;19.75;85.83
68230;BME280;55048;52.220;5.160;2023-07-24T01:54:35;100249.22;;;19.76;85.72
68230;BME280;55048;52.220;5.160;2023-07-24T01:57:00;100224.09;;;19.67;85.33
68230;BME280;55048;52.220;5.160;2023-07-24T01:59:25;100231.41;;;19.66;85.24
68230;BME280;55048;52.220;5.160;2023-07-24T02:01:51;100225.16;;;19.57;85.41
68230;BME280;55048;52.220;5.160;2023-07-24T02:04:17;100233.44;;;19.60;85.56
68230;BME280;55048;52.220;5.160;2023-07-24T02:06:42;100242.19;;;19.66;85.46
68230;BME280;55048;52.220;5.160;2023-07-24T02:09:08;100218.34;;;19.59;85.40
68230;BME280;55048;52.220;5.160;2023-07-24T02:11:33;100224.25;;;19.61;85.37
68230;BME280;55048;52.220;5.160;2023-07-24T02:13:59;100226.63;;;19.63;85.41
68230;BME280;55048;52.220;5.160;2023-07-24T02:16:25;100208.69;;;19.58;85.51
68230;BME280;55048;52.220;5.160;2023-07-24T02:18:50;100216.94;;;19.62;85.45
68230;BME280;55048;52.220;5.160;2023-07-24T02:21:15;100197.88;;;19.58;85.59
68230;BME280;55048;52.220;5.160;2023-07-24T02:23:41;100187.34;;;19.48;85.72
68230;BME280;55048;52.220;5.160;2023-07-24T02:26:06;100221.56;;;19.61;85.61
68230;BME280;55048;52.220;5.160;2023-07-24T02:28:33;100210.06;;;19.56;85.96
68230;BME280;55048;52.220;5.160;2023-07-24T02:30:58;100201.66;;;19.57;86.04
68230;BME280;55048;52.220;5.160;2023-07-24T02:33:25;100191.03;;;19.52;86.20
68230;BME280;55048;52.220;5.160;2023-07-24T02:35:51;100203.00;;;19.60;86.24
68230;BME280;55048;52.220;5.160;2023-07-24T02:38:17;100193.91;;;19.56;86.63
68230;BME280;55048;52.220;5.160;2023-07-24T02:40:44;100190.28;;;19.60;86.63
68230;BME280;55048;52.220;5.160;2023-07-24T02:43:09;100187.72;;;19.55;86.61
68230;BME280;55048;52.220;5.160;2023-07-24T02:45:35;100189.19;;;19.61;86.62
68230;BME280;55048;52.220;5.160;2023-07-24T02:48:01;100204.25;;;19.62;86.76
68230;BME280;55048;52.220;5.160;2023-07-24T02:50:27;100180.38;;;19.47;86.85
68230;BME280;55048;52.220;5.160;2023-07-24T02:52:53;100167.34;;;19.41;86.75
68230;BME280;55048;52.220;5.160;2023-07-24T02:55:18;100165.44;;;19.41;87.21
68230;BME280;55048;52.220;5.160;2023-07-24T02:57:44;100193.28;;;19.59;86.80
68230;BME280;55048;52.220;5.160;2023-07-24T03:00:10;100187.38;;;19.57;86.88
68230;BME280;55048;52.220;5.160;2023-07-24T03:02:35;100191.66;;;19.58;87.14
68230;BME280;55048;52.220;5.160;2023-07-24T03:05:02;100201.88;;;19.61;87.44
68230;BME280;55048;52.220;5.160;2023-07-24T03:07:28;100203.47;;;19.62;87.25
68230;BME280;55048;52.220;5.160;2023-07-24T03:09:53;100193.00;;;19.60;87.23
68230;BME280;55048;52.220;5.160;2023-07-24T03:12:18;100194.06;;;19.59;87.31
68230;BME280;55048;52.220;5.160;2023-07-24T03:14:44;100193.47;;;19.62;87.63
68230;BME280;55048;52.220;5.160;2023-07-24T03:17:09;100177.72;;;19.56;87.67
68230;BME280;55048;52.220;5.160;2023-07-24T03:19:35;100182.31;;;19.55;87.56
68230;BME280;55048;52.220;5.160;2023-07-24T03:22:00;100178.81;;;19.55;87.80
68230;BME280;55048;52.220;5.160;2023-07-24T03:24:26;100196.66;;;19.65;87.20
68230;BME280;55048;52.220;5.160;2023-07-24T03:26:51;100179.00;;;19.58;87.47
68230;BME280;55048;52.220;5.160;2023-07-24T03:29:16;100177.38;;;19.57;87.11
68230;BME280;55048;52.220;5.160;2023-07-24T03:31:42;100158.03;;;19.55;87.35
68230;BME280;55048;52.220;5.160;2023-07-24T03:34:07;100153.63;;;19.59;87.23
68230;BME280;55048;52.220;5.160;2023-07-24T03:36:33;100166.31;;;19.59;87.38
68230;BME280;55048;52.220;5.160;2023-07-24T03:38:59;100187.63;;;19.69;87.55
68230;BME280;55048;52.220;5.160;2023-07-24T03:41:24;100170.31;;;19.61;87.35
68230;BME280;55048;52.220;5.160;2023-07-24T03:43:49;100164.13;;;19.61;87.28
68230;BME280;55048;52.220;5.160;2023-07-24T03:46:15;100162.00;;;19.58;88.09
68230;BME280;55048;52.220;5.160;2023-07-24T03:48:40;100170.91;;;19.58;87.85
68230;BME280;55048;52.220;5.160;2023-07-24T03:51:05;100163.88;;;19.49;87.87
68230;BME280;55048;52.220;5.160;2023-07-24T03:53:32;100172.31;;;19.56;87.79
68230;BME280;55048;52.220;5.160;2023-07-24T03:55:57;100176.59;;;19.57;88.21
68230;BME280;55048;52.220;5.160;2023-07-24T03:58:23;100186.81;;;19.60;88.33
68230;BME280;55048;52.220;5.160;2023-07-24T04:00:48;100179.00;;;19.58;88.06
68230;BME280;55048;52.220;5.160;2023-07-24T04:03:14;100174.03;;;19.52;88.90
68230;BME280;55048;52.220;5.160;2023-07-24T04:05:39;100170.56;;;19.51;89.21
68230;BME280;55048;52.220;5.160;2023-07-24T04:08:04;100157.03;;;19.43;88.96
68230;BME280;55048;52.220;5.160;2023-07-24T04:10:30;100170.53;;;19.43;89.80
68230;BME280;55048;52.220;5.160;2023-07-24T04:12:56;100170.66;;;19.37;89.89
68230;BME280;55048;52.220;5.160;2023-07-24T04:15:22;100176.72;;;19.43;89.76
68230;BME280;55048;52.220;5.160;2023-07-24T04:17:47;100175.13;;;19.42;90.03
68230;BME280;55048;52.220;5.160;2023-07-24T04:20:13;100166.56;;;19.40;89.58
68230;BME280;55048;52.220;5.160;2023-07-24T04:22:38;100154.00;;;19.35;89.29
68230;BME280;55048;52.220;5.160;2023-07-24T04:25:04;100169.25;;;19.40;89.53
68230;BME280;55048;52.220;5.160;2023-07-24T04:27:29;100170.53;;;19.43;88.85
68230;BME280;55048;52.220;5.160;2023-07-24T04:29:55;100178.63;;;19.43;89.53
68230;BME280;55048;52.220;5.160;2023-07-24T04:32:20;100176.06;;;19.37;89.44
68230;BME280;55048;52.220;5.160;2023-07-24T04:34:46;100170.19;;;19.35;89.60
68230;BME280;55048;52.220;5.160;2023-07-24T04:37:11;100171.91;;;19.31;89.93
68230;BME280;55048;52.220;5.160;2023-07-24T04:39:40;100160.78;;;19.24;89.68
68230;BME280;55048;52.220;5.160;2023-07-24T04:42:05;100150.31;;;19.23;89.19
68230;BME280;55048;52.220;5.160;2023-07-24T04:44:31;100169.69;;;19.33;89.10
68230;BME280;55048;52.220;5.160;2023-07-24T04:46:57;100157.09;;;19.20;89.37
68230;BME280;55048;52.220;5.160;2023-07-24T04:49:23;100160.25;;;19.14;89.23
68230;BME280;55048;52.220;5.160;2023-07-24T04:51:50;100159.47;;;19.13;89.23
68230;BME280;55048;52.220;5.160;2023-07-24T04:54:16;100156.94;;;19.17;88.90
68230;BME280;55048;52.220;5.160;2023-07-24T04:56:42;100163.41;;;19.16;88.79
68230;BME280;55048;52.220;5.160;2023-07-24T04:59:07;100174.88;;;19.21;88.67
68230;BME280;55048;52.220;5.160;2023-07-24T05:01:33;100170.44;;;19.17;89.11
68230;BME280;55048;52.220;5.160;2023-07-24T05:03:58;100177.59;;;19.21;88.90
68230;BME280;55048;52.220;5.160;2023-07-24T05:06:23;100170.25;;;19.13;89.19
68230;BME280;55048;52.220;5.160;2023-07-24T05:08:49;100165.66;;;19.14;89.00
68230;BME280;55048;52.220;5.160;2023-07-24T05:11:14;100175.97;;;19.20;88.90
68230;BME280;55048;52.220;5.160;2023-07-24T05:13:40;100174.06;;;19.21;88.93
68230;BME280;55048;52.220;5.160;2023-07-24T05:16:05;100177.31;;;19.31;88.83
68230;BME280;55048;52.220;5.160;2023-07-24T05:18:30;100172.53;;;19.28;88.99
68230;BME280;55048;52.220;5.160;2023-07-24T05:20:56;100186.53;;;19.39;89.21
68230;BME280;55048;52.220;5.160;2023-07-24T05:23:21;100177.63;;;19.38;88.79
68230;BME280;55048;52.220;5.160;2023-07-24T05:25:47;100169.06;;;19.36;88.85
68230;BME280;55048;52.220;5.160;2023-07-24T05:28:12;100171.97;;;19.40;89.16
68230;BME280;55048;52.220;5.160;2023-07-24T05:30:37;100184.66;;;19.48;88.79
68230;BME280;55048;52.220;5.160;2023-07-24T05:33:03;100185.19;;;19.59;88.51
68230;BME280;55048;52.220;5.160;2023-07-24T05:35:28;100177.28;;;19.62;88.56
68230;BME280;55048;52.220;5.160;2023-07-24T05:37:54;100196.03;;;19.76;88.04
68230;BME280;55048;52.220;5.160;2023-07-24T05:40:19;100180.34;;;19.78;88.16
68230;BME280;55048;52.220;5.160;2023-07-24T05:42:45;100182.94;;;19.92;87.26
68230;BME280;55048;52.220;5.160;2023-07-24T05:45:11;100185.63;;;19.92;86.69
68230;BME280;55048;52.220;5.160;2023-07-24T05:47:37;100171.97;;;19.88;86.58
68230;BME280;55048;52.220;5.160;2023-07-24T05:50:03;100172.91;;;19.84;86.36
68230;BME280;55048;52.220;5.160;2023-07-24T05:52:28;100188.63;;;19.99;86.31
68230;BME280;55048;52.220;5.160;2023-07-24T05:54:54;100188.81;;;20.11;85.75
68230;BME280;55048;52.220;5.160;2023-07-24T05:57:19;100152.78;;;20.07;85.34
68230;BME280;55048;52.220;5.160;2023-07-24T05:59:46;100169.94;;;20.29;84.82
68230;BME280;55048;52.220;5.160;2023-07-24T06:02:11;100175.97;;;20.17;85.01
68230;BME280;55048;52.220;5.160;2023-07-24T06:04:37;100189.47;;;20.26;84.85
68230;BME280;55048;52.220;5.160;2023-07-24T06:07:02;100188.03;;;20.28;85.08
68230;BME280;55048;52.220;5.160;2023-07-24T06:09:28;100186.28;;;20.32;85.14
68230;BME280;55048;52.220;5.160;2023-07-24T06:11:53;100178.34;;;20.27;84.91
68230;BME280;55048;52.220;5.160;2023-07-24T06:14:19;100187.72;;;20.21;84.65
68230;BME280;55048;52.220;5.160;2023-07-24T06:16:44;100175.50;;;20.24;84.22
68230;BME280;55048;52.220;5.160;2023-07-24T06:19:10;100168.03;;;20.21;83.94
68230;BME280;55048;52.220;5.160;2023-07-24T06:21:35;100178.03;;;20.37;83.47
68230;BME280;55048;52.220;5.160;2023-07-24T06:24:01;100180.72;;;20.37;82.95
68230;BME280;55048;52.220;5.160;2023-07-24T06:26:26;100184.88;;;20.44;82.30
68230;BME280;55048;52.220;5.160;2023-07-24T06:28:51;100198.25;;;20.49;82.38
68230;BME280;55048;52.220;5.160;2023-07-24T06:31:17;100202.50;;;20.41;82.43
68230;BME280;55048;52.220;5.160;2023-07-24T06:33:42;100199.50;;;20.34;81.69
68230;BME280;55048;52.220;5.160;2023-07-24T06:36:10;100200.13;;;20.39;81.41
68230;BME280;55048;52.220;5.160;2023-07-24T06:38:36;100204.25;;;20.37;81.44
68230;BME280;55048;52.220;5.160;2023-07-24T06:41:01;100192.66;;;20.28;80.74
68230;BME280;55048;52.220;5.160;2023-07-24T06:43:28;100207.28;;;20.35;80.74
68230;BME280;55048;52.220;5.160;2023-07-24T06:45:54;100197.25;;;20.27;80.14
68230;BME280;55048;52.220;5.160;2023-07-24T06:48:19;100199.16;;;20.27;79.86
68230;BME280;55048;52.220;5.160;2023-07-24T06:50:44;100203.31;;;20.24;79.24
68230;BME280;55048;52.220;5.160;2023-07-24T06:53:10;100203.44;;;20.28;78.80
68230;BME280;55048;52.220;5.160;2023-07-24T06:55:35;100197.56;;;20.26;78.81
68230;BME280;55048;52.220;5.160;2023-07-24T06:58:00;100202.19;;;20.25;78.29
68230;BME280;55048;52.220;5.160;2023-07-24T07:00:26;100204.72;;;20.30;78.46
68230;BME280;55048;52.220;5.160;2023-07-24T07:02:51;100203.44;;;20.28;78.55
68230;BME280;55048;52.220;5.160;2023-07-24T07:05:17;100209.97;;;20.35;77.54
68230;BME280;55048;52.220;5.160;2023-07-24T07:07:42;100205.84;;;20.47;77.48
68230;BME280;55048;52.220;5.160;2023-07-24T07:10:08;100200.44;;;20.47;77.11
68230;BME280;55048;52.220;5.160;2023-07-24T07:12:33;100203.78;;;20.61;76.92
68230;BME280;55048;52.220;5.160;2023-07-24T07:14:58;100197.13;;;20.67;76.00
68230;BME280;55048;52.220;5.160;2023-07-24T07:17:24;100198.72;;;20.68;75.65
68230;BME280;55048;52.220;5.160;2023-07-24T07:19:50;100184.09;;;20.69;74.59
68230;BME280;55048;52.220;5.160;2023-07-24T07:22:15;100201.56;;;20.80;74.17
68230;BME280;55048;52.220;5.160;2023-07-24T07:24:40;100188.97;;;20.93;74.36
68230;BME280;55048;52.220;5.160;2023-07-24T07:27:06;100198.44;;;21.25;73.63
68230;BME280;55048;52.220;5.160;2023-07-24T07:29:31;100175.69;;;21.26;72.84
68230;BME280;55048;52.220;5.160;2023-07-24T07:31:57;100188.72;;;21.42;72.06
68230;BME280;55048;52.220;5.160;2023-07-24T07:34:22;100174.88;;;21.26;72.11
68230;BME280;55048;52.220;5.160;2023-07-24T07:36:48;100190.81;;;21.36;71.91
68230;BME280;55048;52.220;5.160;2023-07-24T07:39:13;100174.25;;;21.37;71.60
68230;BME280;55048;52.220;5.160;2023-07-24T07:41:38;100173.38;;;21.54;71.54
68230;BME280;55048;52.220;5.160;2023-07-24T07:44:04;100171.88;;;21.65;71.58
68230;BME280;55048;52.220;5.160;2023-07-24T07:46:29;100170.91;;;21.70;71.16
68230;BME280;55048;52.220;5.160;2023-07-24T07:48:55;100189.50;;;21.72;70.88
68230;BME280;55048;52.220;5.160;2023-07-24T07:51:20;100157.09;;;21.63;70.78
68230;BME280;55048;52.220;5.160;2023-07-24T07:53:45;100160.00;;;21.87;70.10
68230;BME280;55048;52.220;5.160;2023-07-24T07:56:11;100152.25;;;21.98;70.12
68230;BME280;55048;52.220;5.160;2023-07-24T07:58:36;100174.38;;;22.00;69.76
68230;BME280;55048;52.220;5.160;2023-07-24T08:01:06;100168.75;;;21.84;70.08
68230;BME280;55048;52.220;5.160;2023-07-24T08:03:31;100168.09;;;21.87;70.00
68230;BME280;55048;52.220;5.160;2023-07-24T08:05:57;100163.97;;;22.11;68.95
68230;BME280;55048;52.220;5.160;2023-07-24T08:08:23;100162.84;;;22.54;68.11
68230;BME280;55048;52.220;5.160;2023-07-24T08:10:49;100155.34;;;22.72;67.61
68230;BME280;55048;52.220;5.160;2023-07-24T08:13:14;100158.03;;;23.05;66.18
68230;BME280;55048;52.220;5.160;2023-07-24T08:15:39;100168.78;;;23.01;66.43
68230;BME280;55048;52.220;5.160;2023-07-24T08:18:05;100172.16;;;22.98;65.83
68230;BME280;55048;52.220;5.160;2023-07-24T08:20:31;100166.19;;;22.84;66.10
68230;BME280;55048;52.220;5.160;2023-07-24T08:22:57;100164.78;;;22.65;66.56
68230;BME280;55048;52.220;5.160;2023-07-24T08:25:23;100164.97;;;22.48;66.60
68230;BME280;55048;52.220;5.160;2023-07-24T08:27:48;100171.13;;;22.36;67.07
68230;BME280;55048;52.220;5.160;2023-07-24T08:30:14;100182.53;;;22.42;67.17
68230;BME280;55048;52.220;5.160;2023-07-24T08:32:39;100180.13;;;22.61;66.59
68230;BME280;55048;52.220;5.160;2023-07-24T08:35:05;100181.25;;;22.60;66.23
68230;BME280;55048;52.220;5.160;2023-07-24T08:37:31;100175.47;;;22.50;66.63
68230;BME280;55048;52.220;5.160;2023-07-24T08:39:56;100173.38;;;22.34;67.13
68230;BME280;55048;52.220;5.160;2023-07-24T08:42:22;100176.31;;;22.41;67.43
68230;BME280;55048;52.220;5.160;2023-07-24T08:44:48;100153.06;;;22.40;67.65
68230;BME280;55048;52.220;5.160;2023-07-24T08:47:15;100173.84;;;22.70;68.11
68230;BME280;55048;52.220;5.160;2023-07-24T08:49:41;100170.13;;;22.74;68.20
68230;BME280;55048;52.220;5.160;2023-07-24T08:52:08;100177.69;;;22.69;68.25
68230;BME280;55048;52.220;5.160;2023-07-24T08:54:35;100174.53;;;22.66;67.93
68230;BME280;55048;52.220;5.160;2023-07-24T08:57:02;100162.72;;;22.50;67.68
68230;BME280;55048;52.220;5.160;2023-07-24T08:59:27;100163.50;;;22.51;67.78
68230;BME280;55048;52.220;5.160;2023-07-24T09:01:55;100153.44;;;22.51;67.75
68230;BME280;55048;52.220;5.160;2023-07-24T09:04:20;100165.91;;;22.64;67.92
68230;BME280;55048;52.220;5.160;2023-07-24T09:06:46;100163.00;;;22.70;67.78
68230;BME280;55048;52.220;5.160;2023-07-24T09:09:13;100155.44;;;22.42;67.99
68230;BME280;55048;52.220;5.160;2023-07-24T09:11:50;100159.94;;;22.38;68.49
68230;BME280;55048;52.220;5.160;2023-07-24T09:14:34;100154.94;;;22.28;68.49
68230;BME280;55048;52.220;5.160;2023-07-24T09:17:07;100157.13;;;22.34;68.28
68230;BME280;55048;52.220;5.160;2023-07-24T09:19:33;100159.63;;;22.73;67.23
68230;BME280;55048;52.220;5.160;2023-07-24T09:22:12;100160.19;;;22.99;66.05
68230;BME280;55048;52.220;5.160;2023-07-24T09:24:52;100159.31;;;23.20;65.76
68230;BME280;55048;52.220;5.160;2023-07-24T09:27:18;100162.03;;;23.20;65.25
68230;BME280;55048;52.220;5.160;2023-07-24T09:29:43;100171.38;;;23.22;65.33
68230;BME280;55048;52.220;5.160;2023-07-24T09:32:22;100166.41;;;23.12;65.01
68230;BME280;55048;52.220;5.160;2023-07-24T09:34:49;100162.50;;;22.88;65.08
68230;BME280;55048;52.220;5.160;2023-07-24T09:37:34;100137.59;;;22.62;64.94
68230;BME280;55048;52.220;5.160;2023-07-24T09:39:59;100147.75;;;22.65;65.16
68230;BME280;55048;52.220;5.160;2023-07-24T09:42:29;100135.81;;;22.45;65.90
68230;BME280;55048;52.220;5.160;2023-07-24T09:44:54;100125.72;;;22.33;66.53
68230;BME280;55048;52.220;5.160;2023-07-24T09:47:20;100096.81;;;22.25;66.43
68230;BME280;55048;52.220;5.160;2023-07-24T09:49:46;100123.63;;;22.51;66.26
68230;BME280;55048;52.220;5.160;2023-07-24T09:52:12;100130.59;;;22.73;65.86
68230;BME280;55048;52.220;5.160;2023-07-24T09:54:49;100134.09;;;23.07;65.11
68230;BME280;55048;52.220;5.160;2023-07-24T09:57:20;100134.09;;;23.19;64.53
68230;BME280;55048;52.220;5.160;2023-07-24T09:59:46;100136.38;;;23.29;64.42
68230;BME280;55048;52.220;5.160;2023-07-24T10:02:13;100138.16;;;23.62;64.51
68230;BME280;55048;52.220;5.160;2023-07-24T10:04:39;100152.91;;;24.13;63.57
68230;BME280;55048;52.220;5.160;2023-07-24T10:07:06;100137.97;;;24.48;62.25
68230;BME280;55048;52.220;5.160;2023-07-24T10:09:32;100154.19;;;24.72;59.97
68230;BME280;55048;52.220;5.160;2023-07-24T10:11:58;100142.81;;;24.82;59.40
68230;BME280;55048;52.220;5.160;2023-07-24T10:14:25;100134.75;;;24.86;59.51
68230;BME280;55048;52.220;5.160;2023-07-24T10:16:51;100125.88;;;24.73;59.15
68230;BME280;55048;52.220;5.160;2023-07-24T10:19:20;100153.06;;;24.73;59.83
68230;BME280;55048;52.220;5.160;2023-07-24T10:21:47;100139.91;;;24.47;60.22
68230;BME280;55048;52.220;5.160;2023-07-24T10:24:14;100128.66;;;23.92;60.69
68230;BME280;55048;52.220;5.160;2023-07-24T10:26:40;100142.50;;;23.75;60.55
68230;BME280;55048;52.220;5.160;2023-07-24T10:29:05;100139.88;;;23.66;61.63
68230;BME280;55048;52.220;5.160;2023-07-24T10:31:32;100119.63;;;23.39;62.04
68230;BME280;55048;52.220;5.160;2023-07-24T10:34:07;100135.34;;;23.34;63.12
68230;BME280;55048;52.220;5.160;2023-07-24T10:36:34;100139.09;;;23.41;63.56
68230;BME280;55048;52.220;5.160;2023-07-24T10:39:00;100112.28;;;23.52;63.17
68230;BME280;55048;52.220;5.160;2023-07-24T10:41:37;100122.94;;;23.70;61.86
68230;BME280;55048;52.220;5.160;2023-07-24T10:44:03;100100.53;;;23.60;61.90
68230;BME280;55048;52.220;5.160;2023-07-24T10:46:36;100120.44;;;23.64;62.73
68230;BME280;55048;52.220;5.160;2023-07-24T10:49:02;100104.13;;;23.52;64.25
68230;BME280;55048;52.220;5.160;2023-07-24T10:51:29;100121.44;;;23.60;65.14
68230;BME280;55048;52.220;5.160;2023-07-24T10:53:55;100130.50;;;23.64;66.30
68230;BME280;55048;52.220;5.160;2023-07-24T10:56:20;100127.34;;;23.74;66.21
68230;BME280;55048;52.220;5.160;2023-07-24T10:58:46;100117.59;;;23.61;65.21
68230;BME280;55048;52.220;5.160;2023-07-24T11:01:11;100114.75;;;23.57;65.41
68230;BME280;55048;52.220;5.160;2023-07-24T11:03:39;100125.06;;;23.52;64.88
68230;BME280;55048;52.220;5.160;2023-07-24T11:06:05;100135.25;;;23.42;64.94
68230;BME280;55048;52.220;5.160;2023-07-24T11:08:37;100130.13;;;23.16;65.55
68230;BME280;55048;52.220;5.160;2023-07-24T11:11:05;100127.34;;;23.37;65.43
68230;BME280;55048;52.220;5.160;2023-07-24T11:13:31;100124.16;;;23.72;65.15
68230;BME280;55048;52.220;5.160;2023-07-24T11:16:04;100125.22;;;24.08;63.54
68230;BME280;55048;52.220;5.160;2023-07-24T11:18:30;100131.34;;;24.45;62.81
68230;BME280;55048;52.220;5.160;2023-07-24T11:20:56;100129.25;;;24.54;60.94
68230;BME280;55048;52.220;5.160;2023-07-24T11:23:22;100129.28;;;24.70;59.81
68230;BME280;55048;52.220;5.160;2023-07-24T11:25:54;100122.00;;;24.74;58.96
68230;BME280;55048;52.220;5.160;2023-07-24T11:28:20;100127.28;;;24.83;58.70
68230;BME280;55048;52.220;5.160;2023-07-24T11:30:45;100128.75;;;24.80;58.56
68230;BME280;55048;52.220;5.160;2023-07-24T11:33:14;100123.59;;;24.91;57.87
68230;BME280;55048;52.220;5.160;2023-07-24T11:35:40;100119.22;;;25.18;57.65
68230;BME280;55048;52.220;5.160;2023-07-24T11:38:08;100127.69;;;25.64;57.14
68230;BME280;55048;52.220;5.160;2023-07-24T11:40:37;100136.91;;;25.59;56.53
68230;BME280;55048;52.220;5.160;2023-07-24T11:43:03;100132.94;;;25.88;55.91
68230;BME280;55048;52.220;5.160;2023-07-24T11:45:30;100132.56;;;25.90;55.55
68230;BME280;55048;52.220;5.160;2023-07-24T11:47:55;100123.03;;;25.80;56.04
68230;BME280;55048;52.220;5.160;2023-07-24T11:50:22;100129.84;;;25.90;54.83
68230;BME280;55048;52.220;5.160;2023-07-24T11:52:49;100132.06;;;25.68;55.17
68230;BME280;55048;52.220;5.160;2023-07-24T11:55:17;100140.31;;;25.37;55.77
68230;BME280;55048;52.220;5.160;2023-07-24T11:57:43;100126.50;;;24.98;56.19
68230;BME280;55048;52.220;5.160;2023-07-24T12:00:19;100126.94;;;25.00;57.54
68230;BME280;55048;52.220;5.160;2023-07-24T12:02:45;100146.31;;;24.99;55.99
68230;BME280;55048;52.220;5.160;2023-07-24T12:05:11;100116.78;;;25.13;55.93
68230;BME280;55048;52.220;5.160;2023-07-24T12:07:36;100129.50;;;25.25;56.11
68230;BME280;55048;52.220;5.160;2023-07-24T12:10:06;100121.06;;;25.30;55.96
68230;BME280;55048;52.220;5.160;2023-07-24T12:12:43;100138.03;;;25.07;57.54
68230;BME280;55048;52.220;5.160;2023-07-24T12:15:09;100119.91;;;24.83;58.25
68230;BME280;55048;52.220;5.160;2023-07-24T12:17:35;100121.38;;;24.65;58.88
68230;BME280;55048;52.220;5.160;2023-07-24T12:20:02;100118.88;;;24.44;59.68
68230;BME280;55048;52.220;5.160;2023-07-24T12:22:29;100124.81;;;24.22;60.26
68230;BME280;55048;52.220;5.160;2023-07-24T12:24:55;100126.00;;;24.08;60.84
68230;BME280;55048;52.220;5.160;2023-07-24T12:27:21;100129.47;;;23.81;61.77
68230;BME280;55048;52.220;5.160;2023-07-24T12:29:46;100125.38;;;23.62;62.18
68230;BME280;55048;52.220;5.160;2023-07-24T12:32:12;100142.34;;;23.35;62.48
68230;BME280;55048;52.220;5.160;2023-07-24T12:34:37;100173.00;;;23.35;63.13
68230;BME280;55048;52.220;5.160;2023-07-24T12:37:03;100144.41;;;23.13;64.04
68230;BME280;55048;52.220;5.160;2023-07-24T12:39:28;100145.25;;;22.93;63.65
68230;BME280;55048;52.220;5.160;2023-07-24T12:41:53;100142.13;;;23.15;63.20
68230;BME280;55048;52.220;5.160;2023-07-24T12:44:19;100138.19;;;23.13;62.22
68230;BME280;55048;52.220;5.160;2023-07-24T12:46:44;100146.41;;;23.16;61.94
68230;BME280;55048;52.220;5.160;2023-07-24T12:49:09;100132.63;;;23.22;62.21
68230;BME280;55048;52.220;5.160;2023-07-24T12:51:35;100131.84;;;23.21;61.97